sensor_id;sensor_type;location;lat;lon;timestamp;P1;durP1;ratioP1;P2;durP2;ratioP2
21773;SDS011;16087;51.662;6.458;2022-07-29T05:35:31;7.13;;;3.42;;
21773;SDS011;16087;51.662;6.458;2022-07-29T05:42:12;9.77;;;3.92;;
21773;SDS011;16087;51.662;6.458;2022-07-29T05:48:53;7.97;;;3.65;;
21773;SDS011;16087;51.662;6.458;2022-07-29T05:55:33;11.02;;;4.40;;
21773;SDS011;16087;51.662;6.458;2022-07-29T06:02:14;11.55;;;4.40;;
21773;SDS011;16087;51.662;6.458;2022-07-29T06:08:56;9.23;;;3.80;;
21773;SDS011;16087;51.662;6.458;2022-07-29T06:15:36;8.52;;;3.97;;
21773;SDS011;16087;51.662;6.458;2022-07-29T06:22:17;16.42;;;4.85;;
21773;SDS011;16087;51.662;6.458;2022-07-29T06:28:58;12.18;;;4.10;;
21773;SDS011;16087;51.662;6.458;2022-07-29T06:35:39;6.53;;;4.00;;
21773;SDS011;16087;51.662;6.458;2022-07-29T06:42:22;10.35;;;4.43;;
21773;SDS011;16087;51.662;6.458;2022-07-29T06:49:03;9.60;;;4.88;;
21773;SDS011;16087;51.662;6.458;2022-07-29T06:55:44;10.32;;;5.13;;
21773;SDS011;16087;51.662;6.458;2022-07-29T07:02:24;12.18;;;4.70;;
21773;SDS011;16087;51.662;6.458;2022-07-29T07:09:05;14.82;;;5.43;;
21773;SDS011;16087;51.662;6.458;2022-07-29T07:15:46;15.45;;;5.68;;
21773;SDS011;16087;51.662;6.458;2022-07-29T07:22:28;12.43;;;5.30;;
21773;SDS011;16087;51.662;6.458;2022-07-29T07:29:08;12.95;;;5.20;;
21773;SDS011;16087;51.662;6.458;2022-07-29T07:35:49;10.48;;;6.30;;
21773;SDS011;16087;51.662;6.458;2022-07-29T07:42:30;14.73;;;6.40;;
21773;SDS011;16087;51.662;6.458;2022-07-29T07:49:11;8.38;;;5.55;;
21773;SDS011;16087;51.662;6.458;2022-07-29T07:55:52;12.15;;;6.28;;
21773;SDS011;16087;51.662;6.458;2022-07-29T08:02:32;14.07;;;7.18;;
21773;SDS011;16087;51.662;6.458;2022-07-29T08:09:13;17.75;;;7.65;;
21773;SDS011;16087;51.662;6.458;2022-07-29T08:15:54;13.52;;;7.28;;
21773;SDS011;16087;51.662;6.458;2022-07-29T08:22:37;13.60;;;7.28;;
21773;SDS011;16087;51.662;6.458;2022-07-29T08:29:18;11.77;;;7.18;;
21773;SDS011;16087;51.662;6.458;2022-07-29T08:35:59;13.00;;;8.73;;
21773;SDS011;16087;51.662;6.458;2022-07-29T08:42:39;11.05;;;8.10;;
21773;SDS011;16087;51.662;6.458;2022-07-29T08:49:20;15.35;;;8.60;;
21773;SDS011;16087;51.662;6.458;2022-07-29T08:56:01;12.82;;;7.45;;
21773;SDS011;16087;51.662;6.458;2022-07-29T09:02:43;9.27;;;6.82;;
21773;SDS011;16087;51.662;6.458;2022-07-29T09:09:27;11.88;;;8.00;;
21773;SDS011;16087;51.662;6.458;2022-07-29T09:16:08;14.05;;;8.35;;
21773;SDS011;16087;51.662;6.458;2022-07-29T09:22:50;10.82;;;7.40;;
21773;SDS011;16087;51.662;6.458;2022-07-29T09:29:33;7.25;;;5.22;;
21773;SDS011;16087;51.662;6.458;2022-07-29T09:36:14;9.25;;;6.00;;
21773;SDS011;16087;51.662;6.458;2022-07-29T09:42:54;12.88;;;7.10;;
21773;SDS011;16087;51.662;6.458;2022-07-29T09:49:50;10.68;;;6.68;;
21773;SDS011;16087;51.662;6.458;2022-07-29T09:56:39;15.80;;;8.57;;
21773;SDS011;16087;51.662;6.458;2022-07-29T10:03:21;14.63;;;7.93;;
21773;SDS011;16087;51.662;6.458;2022-07-29T10:10:02;13.18;;;8.23;;
21773;SDS011;16087;51.662;6.458;2022-07-29T10:16:43;16.02;;;8.20;;
21773;SDS011;16087;51.662;6.458;2022-07-29T10:23:24;10.75;;;6.75;;
21773;SDS011;16087;51.662;6.458;2022-07-29T10:30:06;18.80;;;8.38;;
21773;SDS011;16087;51.662;6.458;2022-07-29T10:44:09;10.52;;;5.80;;
21773;SDS011;16087;51.662;6.458;2022-07-29T10:50:59;11.25;;;6.35;;
21773;SDS011;16087;51.662;6.458;2022-07-29T10:57:43;12.35;;;5.75;;
21773;SDS011;16087;51.662;6.458;2022-07-29T11:05:04;12.43;;;5.25;;
21773;SDS011;16087;51.662;6.458;2022-07-29T11:11:46;10.70;;;5.28;;
21773;SDS011;16087;51.662;6.458;2022-07-29T11:18:27;11.60;;;5.30;;
21773;SDS011;16087;51.662;6.458;2022-07-29T11:25:14;12.90;;;5.20;;
21773;SDS011;16087;51.662;6.458;2022-07-29T11:31:56;10.65;;;4.68;;
21773;SDS011;16087;51.662;6.458;2022-07-29T11:38:49;7.78;;;4.68;;
21773;SDS011;16087;51.662;6.458;2022-07-29T11:45:44;6.82;;;4.90;;
21773;SDS011;16087;51.662;6.458;2022-07-29T11:52:33;9.93;;;5.13;;
21773;SDS011;16087;51.662;6.458;2022-07-29T11:59:17;12.02;;;4.90;;
21773;SDS011;16087;51.662;6.458;2022-07-29T12:05:59;12.00;;;5.50;;
21773;SDS011;16087;51.662;6.458;2022-07-29T12:12:39;9.95;;;4.93;;
21773;SDS011;16087;51.662;6.458;2022-07-29T12:19:20;7.28;;;4.22;;
21773;SDS011;16087;51.662;6.458;2022-07-29T12:26:05;10.43;;;5.68;;
21773;SDS011;16087;51.662;6.458;2022-07-29T12:32:47;8.90;;;4.03;;
21773;SDS011;16087;51.662;6.458;2022-07-29T12:39:28;7.65;;;3.33;;
21773;SDS011;16087;51.662;6.458;2022-07-29T12:46:13;10.65;;;3.88;;
21773;SDS011;16087;51.662;6.458;2022-07-29T12:52:54;11.98;;;3.97;;
21773;SDS011;16087;51.662;6.458;2022-07-29T13:06:40;10.93;;;4.32;;
21773;SDS011;16087;51.662;6.458;2022-07-29T13:13:25;10.65;;;3.28;;
21773;SDS011;16087;51.662;6.458;2022-07-29T13:20:06;11.88;;;4.13;;
21773;SDS011;16087;51.662;6.458;2022-07-29T13:26:52;8.18;;;3.60;;
21773;SDS011;16087;51.662;6.458;2022-07-29T13:33:33;6.78;;;2.72;;
21773;SDS011;16087;51.662;6.458;2022-07-29T13:40:13;6.47;;;2.13;;
21773;SDS011;16087;51.662;6.458;2022-07-29T13:46:57;7.85;;;2.50;;
21773;SDS011;16087;51.662;6.458;2022-07-29T13:53:38;7.97;;;3.17;;
21773;SDS011;16087;51.662;6.458;2022-07-29T14:00:19;7.30;;;2.65;;
21773;SDS011;16087;51.662;6.458;2022-07-29T14:07:01;4.78;;;2.30;;
21773;SDS011;16087;51.662;6.458;2022-07-29T14:13:42;8.25;;;2.85;;
21773;SDS011;16087;51.662;6.458;2022-07-29T14:20:22;7.65;;;2.50;;
21773;SDS011;16087;51.662;6.458;2022-07-29T14:27:03;7.53;;;2.10;;
21773;SDS011;16087;51.662;6.458;2022-07-29T14:33:44;6.78;;;2.60;;
21773;SDS011;16087;51.662;6.458;2022-07-29T14:40:25;6.18;;;2.60;;
21773;SDS011;16087;51.662;6.458;2022-07-29T14:47:06;12.73;;;3.15;;
21773;SDS011;16087;51.662;6.458;2022-07-29T14:53:47;9.63;;;3.25;;
21773;SDS011;16087;51.662;6.458;2022-07-29T15:00:28;9.82;;;3.15;;
21773;SDS011;16087;51.662;6.458;2022-07-29T15:07:12;6.80;;;3.20;;
21773;SDS011;16087;51.662;6.458;2022-07-29T15:13:52;10.63;;;2.60;;
21773;SDS011;16087;51.662;6.458;2022-07-29T15:20:34;6.32;;;3.30;;
21773;SDS011;16087;51.662;6.458;2022-07-29T15:27:15;9.82;;;3.80;;
21773;SDS011;16087;51.662;6.458;2022-07-29T15:33:56;11.05;;;2.97;;
21773;SDS011;16087;51.662;6.458;2022-07-29T15:40:37;9.15;;;3.20;;
21773;SDS011;16087;51.662;6.458;2022-07-29T15:47:21;8.43;;;3.33;;
21773;SDS011;16087;51.662;6.458;2022-07-29T15:54:02;10.48;;;3.50;;
21773;SDS011;16087;51.662;6.458;2022-07-29T16:00:43;11.43;;;3.78;;
21773;SDS011;16087;51.662;6.458;2022-07-29T16:07:23;9.98;;;4.15;;
21773;SDS011;16087;51.662;6.458;2022-07-29T16:14:04;11.88;;;3.85;;
21773;SDS011;16087;51.662;6.458;2022-07-29T16:20:45;10.30;;;3.50;;
21773;SDS011;16087;51.662;6.458;2022-07-29T16:27:25;9.75;;;4.47;;
21773;SDS011;16087;51.662;6.458;2022-07-29T16:34:07;11.93;;;4.35;;
21773;SDS011;16087;51.662;6.458;2022-07-29T16:40:47;12.02;;;3.83;;
21773;SDS011;16087;51.662;6.458;2022-07-29T16:47:28;9.48;;;4.20;;
21773;SDS011;16087;51.662;6.458;2022-07-29T16:54:09;14.38;;;3.13;;
21773;SDS011;16087;51.662;6.458;2022-07-29T17:00:50;10.73;;;3.30;;
21773;SDS011;16087;51.662;6.458;2022-07-29T17:07:31;9.60;;;3.55;;
21773;SDS011;16087;51.662;6.458;2022-07-29T17:14:12;8.07;;;2.83;;
21773;SDS011;16087;51.662;6.458;2022-07-29T17:20:52;14.65;;;3.03;;
21773;SDS011;16087;51.662;6.458;2022-07-29T17:27:33;9.15;;;3.28;;
21773;SDS011;16087;51.662;6.458;2022-07-29T17:34:14;7.32;;;2.65;;
21773;SDS011;16087;51.662;6.458;2022-07-29T17:40:55;10.40;;;2.70;;
21773;SDS011;16087;51.662;6.458;2022-07-29T17:47:36;5.28;;;2.60;;
21773;SDS011;16087;51.662;6.458;2022-07-29T17:54:17;9.23;;;2.90;;
21773;SDS011;16087;51.662;6.458;2022-07-29T18:00:58;10.88;;;3.13;;
21773;SDS011;16087;51.662;6.458;2022-07-29T18:07:38;9.40;;;2.80;;
21773;SDS011;16087;51.662;6.458;2022-07-29T18:14:19;4.07;;;2.28;;
21773;SDS011;16087;51.662;6.458;2022-07-29T18:21:00;7.97;;;2.92;;
21773;SDS011;16087;51.662;6.458;2022-07-29T18:27:42;6.85;;;2.33;;
21773;SDS011;16087;51.662;6.458;2022-07-29T18:34:22;6.80;;;2.63;;
21773;SDS011;16087;51.662;6.458;2022-07-29T18:41:03;10.63;;;2.97;;
21773;SDS011;16087;51.662;6.458;2022-07-29T18:47:44;6.70;;;3.10;;
21773;SDS011;16087;51.662;6.458;2022-07-29T18:54:24;10.60;;;3.13;;
21773;SDS011;16087;51.662;6.458;2022-07-29T19:01:05;9.05;;;3.20;;
21773;SDS011;16087;51.662;6.458;2022-07-29T19:07:46;6.25;;;2.78;;
21773;SDS011;16087;51.662;6.458;2022-07-29T19:14:27;13.93;;;3.20;;
21773;SDS011;16087;51.662;6.458;2022-07-29T19:21:07;10.60;;;3.90;;
21773;SDS011;16087;51.662;6.458;2022-07-29T19:27:48;14.45;;;3.47;;
21773;SDS011;16087;51.662;6.458;2022-07-29T19:34:29;12.85;;;3.70;;
21773;SDS011;16087;51.662;6.458;2022-07-29T19:41:10;11.68;;;3.58;;
21773;SDS011;16087;51.662;6.458;2022-07-29T19:47:52;16.02;;;3.90;;
21773;SDS011;16087;51.662;6.458;2022-07-29T19:54:33;10.98;;;3.60;;
21773;SDS011;16087;51.662;6.458;2022-07-29T20:01:14;8.77;;;3.38;;
21773;SDS011;16087;51.662;6.458;2022-07-29T20:07:55;11.18;;;3.83;;
21773;SDS011;16087;51.662;6.458;2022-07-29T20:14:36;6.38;;;3.75;;
21773;SDS011;16087;51.662;6.458;2022-07-29T20:21:17;11.98;;;4.15;;
21773;SDS011;16087;51.662;6.458;2022-07-29T20:27:57;10.70;;;4.20;;
21773;SDS011;16087;51.662;6.458;2022-07-29T20:34:39;11.60;;;4.15;;
21773;SDS011;16087;51.662;6.458;2022-07-29T20:41:22;12.25;;;4.03;;
21773;SDS011;16087;51.662;6.458;2022-07-29T20:48:03;9.27;;;3.92;;
21773;SDS011;16087;51.662;6.458;2022-07-29T20:54:44;12.85;;;4.57;;
